sensor_id;sensor_type;location;lat;lon;timestamp;P1;durP1;ratioP1;P2;durP2;ratioP2
3781;SDS011;6881;49.962;7.718;2023-02-15T00:01:21;21.50;;;11.17;;
3781;SDS011;6881;49.962;7.718;2023-02-15T00:03:50;29.13;;;12.77;;
3781;SDS011;6881;49.962;7.718;2023-02-15T00:06:15;23.63;;;13.00;;
3781;SDS011;6881;49.962;7.718;2023-02-15T00:08:41;29.37;;;13.33;;
3781;SDS011;6881;49.962;7.718;2023-02-15T00:11:08;34.80;;;13.57;;
3781;SDS011;6881;49.962;7.718;2023-02-15T00:13:38;31.90;;;14.67;;
3781;SDS011;6881;49.962;7.718;2023-02-15T00:16:06;25.37;;;11.20;;
3781;SDS011;6881;49.962;7.718;2023-02-15T00:18:32;19.20;;;10.67;;
3781;SDS011;6881;49.962;7.718;2023-02-15T00:20:58;26.13;;;12.00;;
3781;SDS011;6881;49.962;7.718;2023-02-15T00:23:26;20.43;;;11.17;;
3781;SDS011;6881;49.962;7.718;2023-02-15T00:25:51;28.20;;;13.13;;
3781;SDS011;6881;49.962;7.718;2023-02-15T00:28:16;24.90;;;10.57;;
3781;SDS011;6881;49.962;7.718;2023-02-15T00:30:42;20.23;;;9.47;;
3781;SDS011;6881;49.962;7.718;2023-02-15T00:33:07;21.77;;;10.37;;
3781;SDS011;6881;49.962;7.718;2023-02-15T00:35:32;21.43;;;10.23;;
3781;SDS011;6881;49.962;7.718;2023-02-15T00:37:58;24.07;;;11.63;;
3781;SDS011;6881;49.962;7.718;2023-02-15T00:40:23;27.53;;;11.27;;
3781;SDS011;6881;49.962;7.718;2023-02-15T00:42:48;26.63;;;10.77;;
3781;SDS011;6881;49.962;7.718;2023-02-15T00:45:14;20.87;;;11.63;;
3781;SDS011;6881;49.962;7.718;2023-02-15T00:47:39;28.23;;;10.00;;
3781;SDS011;6881;49.962;7.718;2023-02-15T00:50:05;27.33;;;11.70;;
3781;SDS011;6881;49.962;7.718;2023-02-15T00:52:31;26.50;;;12.40;;
3781;SDS011;6881;49.962;7.718;2023-02-15T00:54:56;22.60;;;12.23;;
3781;SDS011;6881;49.962;7.718;2023-02-15T00:57:21;22.13;;;11.07;;
3781;SDS011;6881;49.962;7.718;2023-02-15T00:59:47;25.80;;;11.40;;
3781;SDS011;6881;49.962;7.718;2023-02-15T01:02:12;23.17;;;9.60;;
3781;SDS011;6881;49.962;7.718;2023-02-15T01:04:38;25.20;;;10.37;;
3781;SDS011;6881;49.962;7.718;2023-02-15T01:07:03;30.03;;;11.90;;
3781;SDS011;6881;49.962;7.718;2023-02-15T01:09:28;26.73;;;10.70;;
3781;SDS011;6881;49.962;7.718;2023-02-15T01:11:54;20.33;;;9.13;;
3781;SDS011;6881;49.962;7.718;2023-02-15T01:14:19;21.47;;;9.70;;
3781;SDS011;6881;49.962;7.718;2023-02-15T01:16:45;24.07;;;10.20;;
3781;SDS011;6881;49.962;7.718;2023-02-15T01:19:10;25.47;;;10.03;;
3781;SDS011;6881;49.962;7.718;2023-02-15T01:21:35;27.87;;;11.83;;
3781;SDS011;6881;49.962;7.718;2023-02-15T01:24:01;24.93;;;11.60;;
3781;SDS011;6881;49.962;7.718;2023-02-15T01:26:26;24.87;;;11.57;;
3781;SDS011;6881;49.962;7.718;2023-02-15T01:28:52;26.20;;;12.00;;
3781;SDS011;6881;49.962;7.718;2023-02-15T01:31:18;23.47;;;11.27;;
3781;SDS011;6881;49.962;7.718;2023-02-15T01:33:46;18.27;;;9.37;;
3781;SDS011;6881;49.962;7.718;2023-02-15T01:36:12;22.83;;;11.63;;
3781;SDS011;6881;49.962;7.718;2023-02-15T01:38:37;21.50;;;9.47;;
3781;SDS011;6881;49.962;7.718;2023-02-15T01:41:04;21.67;;;11.30;;
3781;SDS011;6881;49.962;7.718;2023-02-15T01:46:58;24.30;;;9.03;;
3781;SDS011;6881;49.962;7.718;2023-02-15T01:49:23;19.40;;;9.63;;
3781;SDS011;6881;49.962;7.718;2023-02-15T01:51:50;23.87;;;10.07;;
3781;SDS011;6881;49.962;7.718;2023-02-15T01:56:51;22.77;;;10.30;;
3781;SDS011;6881;49.962;7.718;2023-02-15T01:59:19;23.20;;;11.97;;
3781;SDS011;6881;49.962;7.718;2023-02-15T02:01:46;24.47;;;9.30;;
3781;SDS011;6881;49.962;7.718;2023-02-15T02:04:31;15.17;;;8.07;;
3781;SDS011;6881;49.962;7.718;2023-02-15T02:07:00;34.20;;;10.20;;
3781;SDS011;6881;49.962;7.718;2023-02-15T02:09:27;22.80;;;10.00;;
3781;SDS011;6881;49.962;7.718;2023-02-15T02:11:52;22.77;;;9.27;;
3781;SDS011;6881;49.962;7.718;2023-02-15T02:14:19;24.27;;;10.90;;
3781;SDS011;6881;49.962;7.718;2023-02-15T02:30:29;19.83;;;9.57;;
3781;SDS011;6881;49.962;7.718;2023-02-15T02:44:13;20.50;;;9.83;;
3781;SDS011;6881;49.962;7.718;2023-02-15T02:46:53;24.47;;;9.63;;
3781;SDS011;6881;49.962;7.718;2023-02-15T02:49:28;21.73;;;10.23;;
3781;SDS011;6881;49.962;7.718;2023-02-15T02:52:02;27.90;;;11.70;;
3781;SDS011;6881;49.962;7.718;2023-02-15T02:54:29;20.57;;;10.00;;
3781;SDS011;6881;49.962;7.718;2023-02-15T02:56:56;21.77;;;8.50;;
3781;SDS011;6881;49.962;7.718;2023-02-15T02:59:25;19.40;;;8.17;;
3781;SDS011;6881;49.962;7.718;2023-02-15T03:01:59;23.53;;;9.47;;
3781;SDS011;6881;49.962;7.718;2023-02-15T03:04:35;22.00;;;9.40;;
3781;SDS011;6881;49.962;7.718;2023-02-15T03:07:03;21.57;;;9.97;;
3781;SDS011;6881;49.962;7.718;2023-02-15T03:09:36;20.10;;;9.90;;
3781;SDS011;6881;49.962;7.718;2023-02-15T03:12:16;16.30;;;8.00;;
3781;SDS011;6881;49.962;7.718;2023-02-15T03:14:44;15.87;;;9.33;;
3781;SDS011;6881;49.962;7.718;2023-02-15T03:17:16;19.40;;;9.70;;
3781;SDS011;6881;49.962;7.718;2023-02-15T03:19:43;15.63;;;7.90;;
3781;SDS011;6881;49.962;7.718;2023-02-15T03:22:18;23.20;;;9.97;;
3781;SDS011;6881;49.962;7.718;2023-02-15T03:25:04;26.03;;;10.23;;
3781;SDS011;6881;49.962;7.718;2023-02-15T03:27:37;18.53;;;9.93;;
3781;SDS011;6881;49.962;7.718;2023-02-15T03:30:04;21.77;;;8.87;;
3781;SDS011;6881;49.962;7.718;2023-02-15T03:32:32;26.77;;;10.70;;
3781;SDS011;6881;49.962;7.718;2023-02-15T03:34:58;13.87;;;8.47;;
3781;SDS011;6881;49.962;7.718;2023-02-15T03:37:37;20.10;;;8.90;;
3781;SDS011;6881;49.962;7.718;2023-02-15T03:43:17;19.47;;;10.17;;
3781;SDS011;6881;49.962;7.718;2023-02-15T03:45:47;27.73;;;9.93;;
3781;SDS011;6881;49.962;7.718;2023-02-15T03:48:23;22.80;;;10.83;;
3781;SDS011;6881;49.962;7.718;2023-02-15T03:50:52;20.00;;;9.00;;
3781;SDS011;6881;49.962;7.718;2023-02-15T03:53:38;26.23;;;10.60;;
3781;SDS011;6881;49.962;7.718;2023-02-15T03:56:04;15.63;;;7.30;;
3781;SDS011;6881;49.962;7.718;2023-02-15T03:58:29;24.33;;;10.70;;
3781;SDS011;6881;49.962;7.718;2023-02-15T04:01:15;17.23;;;8.10;;
3781;SDS011;6881;49.962;7.718;2023-02-15T04:04:16;18.07;;;9.40;;
3781;SDS011;6881;49.962;7.718;2023-02-15T04:06:43;21.83;;;9.53;;
3781;SDS011;6881;49.962;7.718;2023-02-15T04:09:08;22.17;;;9.23;;
3781;SDS011;6881;49.962;7.718;2023-02-15T04:11:53;25.37;;;9.73;;
3781;SDS011;6881;49.962;7.718;2023-02-15T04:14:18;16.90;;;8.50;;
3781;SDS011;6881;49.962;7.718;2023-02-15T04:17:04;21.20;;;9.87;;
3781;SDS011;6881;49.962;7.718;2023-02-15T04:19:30;16.53;;;9.00;;
3781;SDS011;6881;49.962;7.718;2023-02-15T04:22:14;20.93;;;9.83;;
3781;SDS011;6881;49.962;7.718;2023-02-15T04:24:58;19.40;;;9.70;;
3781;SDS011;6881;49.962;7.718;2023-02-15T04:27:41;18.10;;;9.27;;
3781;SDS011;6881;49.962;7.718;2023-02-15T04:30:08;15.90;;;8.80;;
3781;SDS011;6881;49.962;7.718;2023-02-15T04:32:34;21.30;;;10.63;;
3781;SDS011;6881;49.962;7.718;2023-02-15T04:35:01;19.87;;;8.67;;
3781;SDS011;6881;49.962;7.718;2023-02-15T04:37:26;20.30;;;11.30;;
3781;SDS011;6881;49.962;7.718;2023-02-15T04:39:51;20.17;;;8.50;;
3781;SDS011;6881;49.962;7.718;2023-02-15T04:42:17;18.90;;;8.37;;
3781;SDS011;6881;49.962;7.718;2023-02-15T04:44:42;26.53;;;10.30;;
3781;SDS011;6881;49.962;7.718;2023-02-15T04:47:08;23.13;;;10.30;;
3781;SDS011;6881;49.962;7.718;2023-02-15T04:49:33;19.67;;;9.50;;
3781;SDS011;6881;49.962;7.718;2023-02-15T04:51:58;24.70;;;9.87;;
3781;SDS011;6881;49.962;7.718;2023-02-15T04:54:24;27.53;;;11.87;;
3781;SDS011;6881;49.962;7.718;2023-02-15T04:56:49;21.00;;;10.73;;
3781;SDS011;6881;49.962;7.718;2023-02-15T04:59:14;24.43;;;11.27;;
3781;SDS011;6881;49.962;7.718;2023-02-15T05:01:40;30.93;;;11.40;;
3781;SDS011;6881;49.962;7.718;2023-02-15T05:04:06;20.57;;;9.00;;
3781;SDS011;6881;49.962;7.718;2023-02-15T05:06:31;29.83;;;11.10;;
3781;SDS011;6881;49.962;7.718;2023-02-15T05:08:57;23.93;;;10.63;;
3781;SDS011;6881;49.962;7.718;2023-02-15T05:11:24;23.50;;;9.90;;
3781;SDS011;6881;49.962;7.718;2023-02-15T05:13:50;26.63;;;10.27;;
3781;SDS011;6881;49.962;7.718;2023-02-15T05:16:15;27.33;;;10.13;;
3781;SDS011;6881;49.962;7.718;2023-02-15T05:18:40;21.47;;;10.10;;
3781;SDS011;6881;49.962;7.718;2023-02-15T05:21:06;23.00;;;11.40;;
3781;SDS011;6881;49.962;7.718;2023-02-15T05:23:31;19.10;;;8.73;;
3781;SDS011;6881;49.962;7.718;2023-02-15T05:25:56;23.30;;;9.30;;
3781;SDS011;6881;49.962;7.718;2023-02-15T05:28:40;19.70;;;8.53;;
3781;SDS011;6881;49.962;7.718;2023-02-15T05:33:38;25.33;;;9.40;;
3781;SDS011;6881;49.962;7.718;2023-02-15T05:36:04;21.57;;;10.40;;
3781;SDS011;6881;49.962;7.718;2023-02-15T05:38:30;16.47;;;9.00;;
3781;SDS011;6881;49.962;7.718;2023-02-15T05:40:56;22.57;;;8.73;;
3781;SDS011;6881;49.962;7.718;2023-02-15T05:43:21;21.07;;;9.87;;
3781;SDS011;6881;49.962;7.718;2023-02-15T05:45:47;18.90;;;9.30;;
3781;SDS011;6881;49.962;7.718;2023-02-15T05:48:14;21.07;;;9.70;;
3781;SDS011;6881;49.962;7.718;2023-02-15T05:50:40;20.20;;;10.40;;
3781;SDS011;6881;49.962;7.718;2023-02-15T05:53:06;19.40;;;8.73;;
3781;SDS011;6881;49.962;7.718;2023-02-15T05:55:31;26.43;;;9.50;;
3781;SDS011;6881;49.962;7.718;2023-02-15T05:57:56;17.43;;;8.63;;
3781;SDS011;6881;49.962;7.718;2023-02-15T06:00:22;21.83;;;11.30;;
3781;SDS011;6881;49.962;7.718;2023-02-15T06:02:47;20.20;;;9.43;;
3781;SDS011;6881;49.962;7.718;2023-02-15T06:05:13;20.37;;;11.57;;
3781;SDS011;6881;49.962;7.718;2023-02-15T06:07:38;17.43;;;9.23;;
3781;SDS011;6881;49.962;7.718;2023-02-15T06:10:03;21.60;;;11.37;;
3781;SDS011;6881;49.962;7.718;2023-02-15T06:12:29;30.37;;;19.20;;
3781;SDS011;6881;49.962;7.718;2023-02-15T06:14:55;34.73;;;20.40;;
3781;SDS011;6881;49.962;7.718;2023-02-15T06:17:20;25.40;;;15.73;;
3781;SDS011;6881;49.962;7.718;2023-02-15T06:19:46;23.37;;;14.73;;
3781;SDS011;6881;49.962;7.718;2023-02-15T06:22:12;33.43;;;15.20;;
3781;SDS011;6881;49.962;7.718;2023-02-15T06:24:39;35.43;;;17.20;;
3781;SDS011;6881;49.962;7.718;2023-02-15T06:27:04;35.23;;;19.20;;
3781;SDS011;6881;49.962;7.718;2023-02-15T06:29:30;26.60;;;13.50;;
3781;SDS011;6881;49.962;7.718;2023-02-15T06:31:55;20.77;;;10.10;;
3781;SDS011;6881;49.962;7.718;2023-02-15T06:34:20;18.50;;;8.70;;
3781;SDS011;6881;49.962;7.718;2023-02-15T06:36:46;19.10;;;10.63;;
3781;SDS011;6881;49.962;7.718;2023-02-15T06:39:11;19.67;;;10.13;;
3781;SDS011;6881;49.962;7.718;2023-02-15T06:41:36;25.63;;;11.03;;
3781;SDS011;6881;49.962;7.718;2023-02-15T06:44:02;18.67;;;10.40;;
3781;SDS011;6881;49.962;7.718;2023-02-15T06:46:27;21.30;;;12.00;;
3781;SDS011;6881;49.962;7.718;2023-02-15T06:48:53;23.10;;;11.53;;
3781;SDS011;6881;49.962;7.718;2023-02-15T06:51:18;32.60;;;14.67;;
3781;SDS011;6881;49.962;7.718;2023-02-15T06:53:44;24.73;;;13.23;;
3781;SDS011;6881;49.962;7.718;2023-02-15T06:56:09;20.00;;;12.07;;
3781;SDS011;6881;49.962;7.718;2023-02-15T06:58:36;17.10;;;9.00;;
3781;SDS011;6881;49.962;7.718;2023-02-15T07:01:02;16.73;;;9.27;;
3781;SDS011;6881;49.962;7.718;2023-02-15T07:03:28;17.30;;;9.87;;
3781;SDS011;6881;49.962;7.718;2023-02-15T07:05:57;21.07;;;11.07;;
3781;SDS011;6881;49.962;7.718;2023-02-15T07:08:24;19.80;;;10.33;;
3781;SDS011;6881;49.962;7.718;2023-02-15T07:10:50;29.27;;;16.60;;
3781;SDS011;6881;49.962;7.718;2023-02-15T07:13:17;23.40;;;11.67;;
3781;SDS011;6881;49.962;7.718;2023-02-15T07:15:43;19.27;;;10.13;;
3781;SDS011;6881;49.962;7.718;2023-02-15T07:18:09;24.60;;;11.63;;
3781;SDS011;6881;49.962;7.718;2023-02-15T07:20:35;20.57;;;11.00;;
3781;SDS011;6881;49.962;7.718;2023-02-15T07:23:02;19.70;;;8.80;;
3781;SDS011;6881;49.962;7.718;2023-02-15T07:25:28;33.00;;;15.37;;
3781;SDS011;6881;49.962;7.718;2023-02-15T07:27:56;85.33;;;34.33;;
3781;SDS011;6881;49.962;7.718;2023-02-15T07:30:23;106.30;;;44.77;;
3781;SDS011;6881;49.962;7.718;2023-02-15T07:32:49;48.60;;;22.07;;
3781;SDS011;6881;49.962;7.718;2023-02-15T07:35:33;32.60;;;17.97;;
3781;SDS011;6881;49.962;7.718;2023-02-15T07:37:58;43.37;;;23.23;;
3781;SDS011;6881;49.962;7.718;2023-02-15T07:40:24;47.53;;;24.67;;
3781;SDS011;6881;49.962;7.718;2023-02-15T07:42:50;48.23;;;23.43;;
3781;SDS011;6881;49.962;7.718;2023-02-15T07:45:17;45.23;;;24.53;;
3781;SDS011;6881;49.962;7.718;2023-02-15T07:47:43;47.70;;;26.80;;
3781;SDS011;6881;49.962;7.718;2023-02-15T07:50:09;39.20;;;19.00;;
3781;SDS011;6881;49.962;7.718;2023-02-15T07:52:34;35.53;;;18.07;;
3781;SDS011;6881;49.962;7.718;2023-02-15T07:54:59;37.37;;;18.70;;
3781;SDS011;6881;49.962;7.718;2023-02-15T07:57:25;30.40;;;15.33;;
3781;SDS011;6881;49.962;7.718;2023-02-15T07:59:50;31.83;;;15.50;;
3781;SDS011;6881;49.962;7.718;2023-02-15T08:02:15;19.00;;;9.50;;
3781;SDS011;6881;49.962;7.718;2023-02-15T08:04:40;19.53;;;9.07;;
3781;SDS011;6881;49.962;7.718;2023-02-15T08:07:06;19.93;;;10.00;;
3781;SDS011;6881;49.962;7.718;2023-02-15T08:09:32;17.53;;;10.07;;
3781;SDS011;6881;49.962;7.718;2023-02-15T08:11:57;29.07;;;11.43;;
3781;SDS011;6881;49.962;7.718;2023-02-15T08:14:22;23.13;;;11.43;;
3781;SDS011;6881;49.962;7.718;2023-02-15T08:16:49;20.17;;;9.83;;
3781;SDS011;6881;49.962;7.718;2023-02-15T08:19:23;22.77;;;9.90;;
3781;SDS011;6881;49.962;7.718;2023-02-15T08:21:52;18.00;;;9.13;;
3781;SDS011;6881;49.962;7.718;2023-02-15T08:24:22;18.17;;;8.23;;
3781;SDS011;6881;49.962;7.718;2023-02-15T08:26:48;18.37;;;9.23;;
3781;SDS011;6881;49.962;7.718;2023-02-15T08:29:15;16.60;;;8.43;;
3781;SDS011;6881;49.962;7.718;2023-02-15T08:31:41;15.77;;;9.60;;
3781;SDS011;6881;49.962;7.718;2023-02-15T08:34:08;18.10;;;9.10;;
3781;SDS011;6881;49.962;7.718;2023-02-15T08:36:34;15.43;;;8.20;;
3781;SDS011;6881;49.962;7.718;2023-02-15T08:39:00;15.77;;;8.20;;
3781;SDS011;6881;49.962;7.718;2023-02-15T08:41:29;12.87;;;8.23;;
3781;SDS011;6881;49.962;7.718;2023-02-15T08:44:00;19.70;;;9.63;;
3781;SDS011;6881;49.962;7.718;2023-02-15T08:46:29;19.67;;;8.87;;
3781;SDS011;6881;49.962;7.718;2023-02-15T08:48:55;18.17;;;8.47;;
3781;SDS011;6881;49.962;7.718;2023-02-15T08:51:22;15.50;;;8.43;;
3781;SDS011;6881;49.962;7.718;2023-02-15T08:53:54;16.37;;;9.20;;
3781;SDS011;6881;49.962;7.718;2023-02-15T08:56:22;17.83;;;9.27;;
3781;SDS011;6881;49.962;7.718;2023-02-15T08:58:50;18.90;;;9.33;;
3781;SDS011;6881;49.962;7.718;2023-02-15T09:01:16;15.83;;;9.37;;
3781;SDS011;6881;49.962;7.718;2023-02-15T09:03:43;19.13;;;9.90;;
3781;SDS011;6881;49.962;7.718;2023-02-15T09:06:09;20.60;;;10.07;;
3781;SDS011;6881;49.962;7.718;2023-02-15T09:08:35;18.40;;;9.07;;
3781;SDS011;6881;49.962;7.718;2023-02-15T09:11:20;19.27;;;8.90;;
3781;SDS011;6881;49.962;7.718;2023-02-15T09:13:51;20.80;;;10.63;;
3781;SDS011;6881;49.962;7.718;2023-02-15T09:16:18;17.33;;;8.37;;
3781;SDS011;6881;49.962;7.718;2023-02-15T09:18:44;16.47;;;9.43;;
3781;SDS011;6881;49.962;7.718;2023-02-15T09:21:11;23.40;;;10.20;;
3781;SDS011;6881;49.962;7.718;2023-02-15T09:23:38;19.00;;;10.40;;
3781;SDS011;6881;49.962;7.718;2023-02-15T09:26:05;19.10;;;10.30;;
3781;SDS011;6881;49.962;7.718;2023-02-15T09:28:32;17.83;;;8.80;;
3781;SDS011;6881;49.962;7.718;2023-02-15T09:31:04;13.97;;;8.00;;
3781;SDS011;6881;49.962;7.718;2023-02-15T09:33:32;15.23;;;7.80;;
3781;SDS011;6881;49.962;7.718;2023-02-15T09:35:58;16.13;;;8.93;;
3781;SDS011;6881;49.962;7.718;2023-02-15T09:38:23;20.50;;;10.57;;
3781;SDS011;6881;49.962;7.718;2023-02-15T09:40:51;20.10;;;9.40;;
3781;SDS011;6881;49.962;7.718;2023-02-15T09:43:33;17.03;;;8.30;;
3781;SDS011;6881;49.962;7.718;2023-02-15T09:46:21;13.63;;;7.93;;
3781;SDS011;6881;49.962;7.718;2023-02-15T09:49:01;18.50;;;8.70;;
3781;SDS011;6881;49.962;7.718;2023-02-15T09:56:58;19.80;;;11.07;;
3781;SDS011;6881;49.962;7.718;2023-02-15T10:07:48;16.60;;;9.73;;
3781;SDS011;6881;49.962;7.718;2023-02-15T10:22:13;22.73;;;10.77;;
3781;SDS011;6881;49.962;7.718;2023-02-15T10:27:24;19.33;;;10.67;;
3781;SDS011;6881;49.962;7.718;2023-02-15T10:32:45;19.80;;;10.07;;
3781;SDS011;6881;49.962;7.718;2023-02-15T10:35:59;14.10;;;7.80;;
3781;SDS011;6881;49.962;7.718;2023-02-15T10:51:16;18.87;;;9.93;;
3781;SDS011;6881;49.962;7.718;2023-02-15T10:54:05;19.33;;;10.47;;
3781;SDS011;6881;49.962;7.718;2023-02-15T10:56:45;17.87;;;10.57;;
3781;SDS011;6881;49.962;7.718;2023-02-15T11:06:58;15.90;;;8.67;;
3781;SDS011;6881;49.962;7.718;2023-02-15T11:09:29;22.40;;;11.40;;
3781;SDS011;6881;49.962;7.718;2023-02-15T11:12:01;21.17;;;12.03;;
3781;SDS011;6881;49.962;7.718;2023-02-15T11:14:33;19.63;;;10.40;;
3781;SDS011;6881;49.962;7.718;2023-02-15T11:17:21;16.90;;;11.60;;
3781;SDS011;6881;49.962;7.718;2023-02-15T11:22:25;22.80;;;10.37;;
3781;SDS011;6881;49.962;7.718;2023-02-15T11:24:50;17.80;;;11.47;;
3781;SDS011;6881;49.962;7.718;2023-02-15T11:27:20;24.77;;;12.47;;
3781;SDS011;6881;49.962;7.718;2023-02-15T11:37:48;25.23;;;11.93;;
3781;SDS011;6881;49.962;7.718;2023-02-15T11:42:47;28.50;;;12.00;;
3781;SDS011;6881;49.962;7.718;2023-02-15T11:45:32;20.17;;;11.00;;
3781;SDS011;6881;49.962;7.718;2023-02-15T11:47:59;21.17;;;11.37;;
3781;SDS011;6881;49.962;7.718;2023-02-15T11:50:26;21.07;;;12.57;;
3781;SDS011;6881;49.962;7.718;2023-02-15T11:52:56;23.07;;;12.27;;
3781;SDS011;6881;49.962;7.718;2023-02-15T11:55:24;25.27;;;13.83;;
3781;SDS011;6881;49.962;7.718;2023-02-15T11:57:52;28.37;;;14.37;;
3781;SDS011;6881;49.962;7.718;2023-02-15T12:00:34;24.63;;;14.03;;
3781;SDS011;6881;49.962;7.718;2023-02-15T12:03:03;23.87;;;13.60;;
3781;SDS011;6881;49.962;7.718;2023-02-15T12:05:45;26.40;;;14.90;;
3781;SDS011;6881;49.962;7.718;2023-02-15T12:08:16;23.33;;;13.00;;
3781;SDS011;6881;49.962;7.718;2023-02-15T12:10:53;21.47;;;12.27;;
3781;SDS011;6881;49.962;7.718;2023-02-15T12:13:22;26.93;;;12.40;;
3781;SDS011;6881;49.962;7.718;2023-02-15T12:15:49;23.43;;;13.70;;
3781;SDS011;6881;49.962;7.718;2023-02-15T12:18:17;27.13;;;12.97;;
3781;SDS011;6881;49.962;7.718;2023-02-15T12:20:45;28.87;;;13.07;;
3781;SDS011;6881;49.962;7.718;2023-02-15T12:23:14;24.47;;;13.73;;
3781;SDS011;6881;49.962;7.718;2023-02-15T12:25:41;26.60;;;13.97;;
3781;SDS011;6881;49.962;7.718;2023-02-15T12:30:50;28.27;;;13.80;;
3781;SDS011;6881;49.962;7.718;2023-02-15T12:33:20;23.27;;;13.73;;
3781;SDS011;6881;49.962;7.718;2023-02-15T12:36:01;24.93;;;14.20;;
3781;SDS011;6881;49.962;7.718;2023-02-15T12:38:31;26.50;;;15.70;;
3781;SDS011;6881;49.962;7.718;2023-02-15T12:41:01;27.53;;;16.37;;
3781;SDS011;6881;49.962;7.718;2023-02-15T12:48:46;29.17;;;13.97;;
3781;SDS011;6881;49.962;7.718;2023-02-15T12:51:13;22.23;;;12.70;;
3781;SDS011;6881;49.962;7.718;2023-02-15T12:53:40;30.23;;;16.13;;
3781;SDS011;6881;49.962;7.718;2023-02-15T12:56:07;23.23;;;14.60;;
3781;SDS011;6881;49.962;7.718;2023-02-15T12:58:34;24.27;;;15.00;;
3781;SDS011;6881;49.962;7.718;2023-02-15T13:04:01;31.60;;;14.23;;
3781;SDS011;6881;49.962;7.718;2023-02-15T13:06:29;26.47;;;15.30;;
3781;SDS011;6881;49.962;7.718;2023-02-15T13:09:19;28.63;;;15.57;;
3781;SDS011;6881;49.962;7.718;2023-02-15T13:11:44;28.20;;;13.97;;
3781;SDS011;6881;49.962;7.718;2023-02-15T13:17:00;31.87;;;16.00;;
3781;SDS011;6881;49.962;7.718;2023-02-15T13:19:41;31.70;;;16.73;;
3781;SDS011;6881;49.962;7.718;2023-02-15T13:22:19;28.67;;;15.83;;
3781;SDS011;6881;49.962;7.718;2023-02-15T13:24:48;30.80;;;17.60;;
3781;SDS011;6881;49.962;7.718;2023-02-15T13:27:16;28.00;;;15.03;;
3781;SDS011;6881;49.962;7.718;2023-02-15T13:29:45;28.40;;;15.97;;
3781;SDS011;6881;49.962;7.718;2023-02-15T13:32:29;28.80;;;16.60;;
3781;SDS011;6881;49.962;7.718;2023-02-15T13:34:57;31.10;;;16.40;;
3781;SDS011;6881;49.962;7.718;2023-02-15T13:40:06;35.03;;;18.30;;
3781;SDS011;6881;49.962;7.718;2023-02-15T13:42:40;33.40;;;17.20;;
3781;SDS011;6881;49.962;7.718;2023-02-15T13:47:59;36.40;;;18.00;;
3781;SDS011;6881;49.962;7.718;2023-02-15T13:56:44;36.40;;;17.47;;
3781;SDS011;6881;49.962;7.718;2023-02-15T13:58:57;33.17;;;18.23;;
3781;SDS011;6881;49.962;7.718;2023-02-15T14:01:40;36.53;;;18.63;;
3781;SDS011;6881;49.962;7.718;2023-02-15T14:06:45;32.20;;;16.87;;
3781;SDS011;6881;49.962;7.718;2023-02-15T14:25:40;30.67;;;16.40;;
3781;SDS011;6881;49.962;7.718;2023-02-15T14:28:09;35.70;;;18.37;;
3781;SDS011;6881;49.962;7.718;2023-02-15T14:30:48;30.27;;;17.37;;
3781;SDS011;6881;49.962;7.718;2023-02-15T14:35:40;35.77;;;18.00;;
3781;SDS011;6881;49.962;7.718;2023-02-15T14:38:13;37.27;;;19.67;;
3781;SDS011;6881;49.962;7.718;2023-02-15T14:40:54;34.87;;;19.53;;
3781;SDS011;6881;49.962;7.718;2023-02-15T14:48:52;37.90;;;19.03;;
3781;SDS011;6881;49.962;7.718;2023-02-15T14:54:54;34.03;;;16.67;;
3781;SDS011;6881;49.962;7.718;2023-02-15T15:02:12;30.70;;;17.50;;
3781;SDS011;6881;49.962;7.718;2023-02-15T15:04:41;37.37;;;19.10;;
3781;SDS011;6881;49.962;7.718;2023-02-15T15:09:37;33.93;;;19.40;;
3781;SDS011;6881;49.962;7.718;2023-02-15T15:14:49;35.80;;;18.03;;
3781;SDS011;6881;49.962;7.718;2023-02-15T15:19:57;32.17;;;18.73;;
3781;SDS011;6881;49.962;7.718;2023-02-15T15:22:46;29.43;;;16.73;;
3781;SDS011;6881;49.962;7.718;2023-02-15T15:28:02;32.13;;;15.80;;
3781;SDS011;6881;49.962;7.718;2023-02-15T15:49:12;35.37;;;19.00;;
3781;SDS011;6881;49.962;7.718;2023-02-15T15:51:40;36.77;;;18.40;;
3781;SDS011;6881;49.962;7.718;2023-02-15T15:54:17;34.60;;;18.10;;
3781;SDS011;6881;49.962;7.718;2023-02-15T15:56:51;35.50;;;18.10;;
3781;SDS011;6881;49.962;7.718;2023-02-15T15:59:19;27.60;;;16.30;;
3781;SDS011;6881;49.962;7.718;2023-02-15T16:01:48;38.37;;;18.30;;
3781;SDS011;6881;49.962;7.718;2023-02-15T16:04:14;25.23;;;15.00;;
3781;SDS011;6881;49.962;7.718;2023-02-15T16:06:51;28.80;;;17.43;;
3781;SDS011;6881;49.962;7.718;2023-02-15T16:09:24;36.57;;;18.47;;
3781;SDS011;6881;49.962;7.718;2023-02-15T16:11:51;35.27;;;18.13;;
3781;SDS011;6881;49.962;7.718;2023-02-15T16:14:37;43.20;;;21.77;;
3781;SDS011;6881;49.962;7.718;2023-02-15T16:17:07;29.53;;;17.07;;
3781;SDS011;6881;49.962;7.718;2023-02-15T16:19:39;30.37;;;17.40;;
3781;SDS011;6881;49.962;7.718;2023-02-15T16:22:13;39.10;;;20.53;;
3781;SDS011;6881;49.962;7.718;2023-02-15T16:32:48;31.20;;;15.50;;
3781;SDS011;6881;49.962;7.718;2023-02-15T16:35:17;34.37;;;18.30;;
3781;SDS011;6881;49.962;7.718;2023-02-15T16:37:43;42.30;;;19.93;;
3781;SDS011;6881;49.962;7.718;2023-02-15T16:40:25;31.13;;;18.30;;
3781;SDS011;6881;49.962;7.718;2023-02-15T16:42:54;30.37;;;16.80;;
3781;SDS011;6881;49.962;7.718;2023-02-15T16:45:22;35.83;;;18.53;;
3781;SDS011;6881;49.962;7.718;2023-02-15T16:47:50;34.30;;;19.80;;
3781;SDS011;6881;49.962;7.718;2023-02-15T16:50:20;35.97;;;18.37;;
3781;SDS011;6881;49.962;7.718;2023-02-15T16:52:46;39.23;;;18.60;;
3781;SDS011;6881;49.962;7.718;2023-02-15T16:55:21;32.60;;;18.17;;
3781;SDS011;6881;49.962;7.718;2023-02-15T16:57:51;31.50;;;16.57;;
3781;SDS011;6881;49.962;7.718;2023-02-15T17:00:24;36.43;;;18.63;;
3781;SDS011;6881;49.962;7.718;2023-02-15T17:02:54;37.50;;;18.47;;
3781;SDS011;6881;49.962;7.718;2023-02-15T17:05:31;34.77;;;18.77;;
3781;SDS011;6881;49.962;7.718;2023-02-15T17:10:41;34.47;;;19.17;;
3781;SDS011;6881;49.962;7.718;2023-02-15T17:15:42;32.57;;;17.27;;
3781;SDS011;6881;49.962;7.718;2023-02-15T17:18:23;37.77;;;18.73;;
3781;SDS011;6881;49.962;7.718;2023-02-15T17:20:50;33.63;;;18.37;;
3781;SDS011;6881;49.962;7.718;2023-02-15T17:25:54;31.50;;;16.90;;
3781;SDS011;6881;49.962;7.718;2023-02-15T17:28:21;39.93;;;19.67;;
3781;SDS011;6881;49.962;7.718;2023-02-15T17:30:49;32.00;;;17.60;;
3781;SDS011;6881;49.962;7.718;2023-02-15T17:33:21;32.50;;;19.10;;
3781;SDS011;6881;49.962;7.718;2023-02-15T17:36:13;37.57;;;18.07;;
3781;SDS011;6881;49.962;7.718;2023-02-15T17:41:21;33.57;;;18.53;;
3781;SDS011;6881;49.962;7.718;2023-02-15T17:43:46;36.77;;;19.30;;
3781;SDS011;6881;49.962;7.718;2023-02-15T17:46:12;39.67;;;18.27;;
3781;SDS011;6881;49.962;7.718;2023-02-15T17:48:40;36.80;;;18.60;;
3781;SDS011;6881;49.962;7.718;2023-02-15T17:51:09;31.67;;;17.10;;
3781;SDS011;6881;49.962;7.718;2023-02-15T17:53:37;42.30;;;19.73;;
3781;SDS011;6881;49.962;7.718;2023-02-15T17:56:02;41.33;;;20.50;;
3781;SDS011;6881;49.962;7.718;2023-02-15T17:58:34;36.00;;;22.07;;
3781;SDS011;6881;49.962;7.718;2023-02-15T18:01:05;37.90;;;22.07;;
3781;SDS011;6881;49.962;7.718;2023-02-15T18:03:50;37.13;;;19.50;;
3781;SDS011;6881;49.962;7.718;2023-02-15T18:06:35;29.63;;;16.87;;
3781;SDS011;6881;49.962;7.718;2023-02-15T18:09:21;43.23;;;20.20;;
3781;SDS011;6881;49.962;7.718;2023-02-15T18:12:19;43.73;;;19.70;;
3781;SDS011;6881;49.962;7.718;2023-02-15T18:14:45;37.60;;;17.40;;
3781;SDS011;6881;49.962;7.718;2023-02-15T18:17:11;47.00;;;19.97;;
3781;SDS011;6881;49.962;7.718;2023-02-15T18:19:38;48.67;;;24.60;;
3781;SDS011;6881;49.962;7.718;2023-02-15T18:22:08;54.23;;;28.63;;
3781;SDS011;6881;49.962;7.718;2023-02-15T18:24:38;50.23;;;26.37;;
3781;SDS011;6881;49.962;7.718;2023-02-15T18:27:04;36.20;;;22.03;;
3781;SDS011;6881;49.962;7.718;2023-02-15T18:29:30;48.00;;;25.37;;
3781;SDS011;6881;49.962;7.718;2023-02-15T18:31:55;42.43;;;22.30;;
3781;SDS011;6881;49.962;7.718;2023-02-15T18:34:26;35.97;;;21.53;;
3781;SDS011;6881;49.962;7.718;2023-02-15T18:36:53;43.80;;;22.77;;